Terminal Aerodrome Forecast
Issued by NWS Cleveland, OH

Home | Current Version | Previous Version | Graphics & Text | Print | Product List | Glossary On
Versions: 1 2 3 4 5 6 7 8 9 10 11 12 13 14 15 16 17 18 19 20 21 22 23 24 25
000
FTUS41 KCLE 241136
TAFTOL
TAF
KTOL 241136Z 2412/2512 06006KT P6SM BKN070
     FM241600 08008KT P6SM -SHRA OVC035
     FM242000 07010KT 6SM -SHRA OVC025
     FM242200 06010KT 4SM -SHRA OVC015
     FM250300 05012KT 3SM -SHRA OVC008=

USA.gov is the U.S. government's official web portal to all federal, state and local government web resources and services.